Time;durP1;ratioP1;P1;durP2;ratioP2;P2;SDS_P1;SDS_P2;PMS_P1;PMS_P2;Temp;Humidity;BMP_temperature;BMP_pressure;BME280_temperature;BME280_humidity;BME280_pressure;Samples;Min_cycle;Max_cycle;Signal;HPM_P1;HPM_P2
2022/04/04 00:00:44;;;;;;;14.27;6.95;;;;;;;0.63;85.97;101740.41;5056488;28;20119;-74
2022/04/04 00:03:10;;;;;;;11.45;7.00;;;;;;;0.60;86.39;101738.81;5058900;28;20103;-74
2022/04/04 00:05:36;;;;;;;11.18;7.50;;;;;;;0.57;85.90;101738.97;5044084;28;20021;-73
2022/04/04 00:08:02;;;;;;;12.63;7.25;;;;;;;0.54;85.71;101744.19;5038570;28;20485;-73
2022/04/04 00:10:28;;;;;;;9.55;7.00;;;;;;;0.51;85.79;101734.97;5057609;28;20111;-73
2022/04/04 00:12:54;;;;;;;11.10;6.82;;;;;;;0.48;86.36;101740.19;5059501;28;20538;-73
2022/04/04 00:15:19;;;;;;;12.55;6.47;;;;;;;0.47;86.22;101741.09;5056751;28;20025;-73
2022/04/04 00:17:45;;;;;;;11.02;6.13;;;;;;;0.46;86.29;101739.44;5057500;28;20047;-73
2022/04/04 00:20:11;;;;;;;16.92;7.03;;;;;;;0.46;86.08;101731.78;5059824;28;20032;-73
2022/04/04 00:22:37;;;;;;;9.40;5.85;;;;;;;0.47;86.73;101733.44;5056932;28;20025;-74
2022/04/04 00:25:03;;;;;;;11.23;6.53;;;;;;;0.47;86.90;101724.94;5042031;28;20382;-74
2022/04/04 00:27:29;;;;;;;13.13;6.40;;;;;;;0.45;87.05;101719.91;5059205;28;20194;-74
2022/04/04 00:29:54;;;;;;;9.10;5.65;;;;;;;0.57;87.62;101718.53;5041819;28;20032;-73
2022/04/04 00:32:20;;;;;;;13.60;5.70;;;;;;;0.56;87.39;101711.75;5055772;28;20040;-74
2022/04/04 00:34:45;;;;;;;13.40;6.32;;;;;;;0.60;87.65;101715.84;5042385;28;20488;-73
2022/04/04 00:37:11;;;;;;;9.73;5.88;;;;;;;0.54;87.52;101709.28;5038059;28;20079;-73
2022/04/04 00:39:36;;;;;;;15.70;6.45;;;;;;;0.51;87.88;101708.59;5039691;28;20040;-74
2022/04/04 00:42:02;;;;;;;12.32;6.30;;;;;;;0.53;87.91;101717.03;5040235;28;20106;-73
2022/04/04 00:44:27;;;;;;;9.10;5.82;;;;;;;0.50;88.00;101707.75;5041376;28;20044;-73
2022/04/04 00:46:53;;;;;;;11.52;5.90;;;;;;;0.47;88.32;101700.25;5058903;28;20036;-73
2022/04/04 00:49:18;;;;;;;10.15;5.70;;;;;;;0.46;88.29;101696.03;5041174;28;20036;-73
2022/04/04 00:51:44;;;;;;;11.43;6.03;;;;;;;0.52;88.19;101703.41;5044119;28;20041;-73
2022/04/04 00:54:10;;;;;;;15.05;6.13;;;;;;;0.49;88.25;101693.38;5060748;28;20054;-73
2022/04/04 00:56:37;;;;;;;12.98;6.05;;;;;;;0.47;88.03;101695.16;5041008;28;20029;-74
2022/04/04 00:59:05;;;;;;;13.30;6.00;;;;;;;0.51;88.25;101691.56;5058918;28;20033;-73
2022/04/04 01:01:32;;;;;;;10.98;6.15;;;;;;;0.48;88.27;101683.22;5024897;28;20032;-73
2022/04/04 01:03:58;;;;;;;11.93;6.68;;;;;;;0.43;88.69;101680.84;5059418;28;20089;-73
2022/04/04 01:06:23;;;;;;;14.70;6.20;;;;;;;0.49;88.60;101680.59;5057388;28;20044;-73
2022/04/04 01:08:49;;;;;;;12.20;6.25;;;;;;;0.47;88.86;101674.75;5057282;28;20039;-73
2022/04/04 01:11:15;;;;;;;12.48;6.68;;;;;;;0.47;88.63;101668.78;5041322;28;20040;-73
2022/04/04 01:13:45;;;;;;;13.43;6.65;;;;;;;0.45;89.10;101666.28;5053660;28;20045;-73
2022/04/04 01:16:11;;;;;;;17.88;6.20;;;;;;;0.45;88.69;101665.47;5041216;28;20055;-73
2022/04/04 01:18:36;;;;;;;14.15;6.18;;;;;;;0.50;89.16;101664.38;5037686;28;20484;-73
2022/04/04 01:21:02;;;;;;;13.60;6.45;;;;;;;0.51;88.76;101662.63;5057258;28;20024;-73
2022/04/04 01:23:38;;;;;;;21.05;6.47;;;;;;;0.44;88.98;101654.44;5038715;28;20044;-73
2022/04/04 01:26:03;;;;;;;10.93;6.38;;;;;;;0.42;89.30;101651.16;5057311;28;20062;-74
2022/04/04 01:28:29;;;;;;;12.35;6.38;;;;;;;0.44;88.89;101651.09;5056014;28;20390;-73
2022/04/04 01:30:55;;;;;;;11.52;6.63;;;;;;;0.57;88.11;101652.19;5057263;28;20036;-73
2022/04/04 01:33:21;;;;;;;15.75;6.85;;;;;;;0.46;88.14;101644.19;5058445;28;20425;-73
2022/04/04 01:35:47;;;;;;;14.38;7.00;;;;;;;0.45;88.85;101639.97;5038704;28;20501;-74
2022/04/04 01:38:12;;;;;;;14.20;6.90;;;;;;;0.43;88.53;101649.41;5039356;28;20262;-74
2022/04/04 01:40:38;;;;;;;12.30;7.32;;;;;;;0.53;88.20;101635.34;5056249;28;20040;-73
2022/04/04 01:43:04;;;;;;;12.95;7.22;;;;;;;0.43;88.60;101634.09;5039244;28;20032;-73
2022/04/04 01:48:13;;;;;;;14.88;7.65;;;;;;;0.35;88.64;101619.97;5057415;28;20032;-73
2022/04/04 01:50:40;;;;;;;14.65;7.82;;;;;;;0.37;89.05;101617.34;5058177;28;20033;-73
2022/04/04 01:55:50;;;;;;;17.48;7.38;;;;;;;0.41;89.02;101611.19;5038194;28;20107;-73
2022/04/04 01:58:15;;;;;;;15.55;7.43;;;;;;;0.43;88.76;101611.13;5059662;28;20581;-73
2022/04/04 02:00:41;;;;;;;14.38;7.60;;;;;;;0.46;88.58;101599.06;5056739;28;20547;-73
2022/04/04 02:03:06;;;;;;;16.00;7.93;;;;;;;0.38;89.04;101609.63;5059851;28;20267;-73
2022/04/04 02:05:32;;;;;;;13.75;7.70;;;;;;;0.38;88.83;101596.03;5056971;28;20303;-73
2022/04/04 02:07:57;;;;;;;15.27;8.32;;;;;;;0.34;89.20;101594.50;5041784;28;20036;-73
2022/04/04 02:10:23;;;;;;;13.48;7.63;;;;;;;0.32;89.06;101586.09;5036949;28;20085;-73
2022/04/04 02:12:49;;;;;;;16.75;8.15;;;;;;;0.32;89.61;101581.00;5024640;28;20039;-73
2022/04/04 02:15:14;;;;;;;17.23;8.80;;;;;;;0.31;89.09;101584.47;5038086;28;20365;-73
2022/04/04 02:17:40;;;;;;;15.63;8.63;;;;;;;0.33;89.47;101580.94;5056831;28;20598;-75
2022/04/04 02:20:08;;;;;;;16.35;8.77;;;;;;;0.42;89.07;101579.69;5039273;28;20452;-73
2022/04/04 02:22:34;;;;;;;14.57;8.60;;;;;;;0.46;89.03;101572.72;5025521;28;20094;-74
2022/04/04 02:24:59;;;;;;;14.68;8.77;;;;;;;0.47;88.75;101570.09;5044355;28;20033;-73
2022/04/04 02:27:25;;;;;;;18.98;9.30;;;;;;;0.37;88.69;101566.31;5055193;28;20032;-74
2022/04/04 02:29:53;;;;;;;13.98;8.75;;;;;;;0.34;89.36;101557.09;5038521;28;20039;-74
2022/04/04 02:32:19;;;;;;;17.55;9.30;;;;;;;0.38;88.82;101545.00;5056159;28;20036;-73
2022/04/04 02:34:48;;;;;;;27.65;9.43;;;;;;;0.38;89.39;101545.00;5056287;28;20037;-73
2022/04/04 02:37:14;;;;;;;16.70;9.10;;;;;;;0.44;88.69;101542.16;5039045;28;20024;-73
2022/04/04 02:39:40;;;;;;;16.75;9.40;;;;;;;0.40;88.90;101545.75;5040099;28;20037;-73
2022/04/04 02:42:06;;;;;;;18.10;9.40;;;;;;;0.53;88.52;101539.19;5052530;28;20044;-73
2022/04/04 02:44:31;;;;;;;20.23;8.20;;;;;;;0.57;88.03;101529.66;5037339;28;20047;-73
2022/04/04 02:46:57;;;;;;;17.27;8.60;;;;;;;0.58;87.77;101533.84;5057205;28;20025;-73
2022/04/04 02:49:23;;;;;;;17.27;9.07;;;;;;;0.65;88.20;101531.84;5053850;28;20056;-73
2022/04/04 02:51:49;;;;;;;18.52;8.82;;;;;;;0.59;88.24;101522.75;5040668;28;20033;-73
2022/04/04 02:54:14;;;;;;;19.77;10.50;;;;;;;0.56;88.13;101517.78;5057774;28;20553;-73
2022/04/04 02:56:41;;;;;;;19.58;9.95;;;;;;;0.60;88.03;101516.72;5053643;28;20028;-73
2022/04/04 02:59:08;;;;;;;14.73;8.18;;;;;;;0.61;88.23;101509.91;5037815;28;20041;-73
2022/04/04 03:01:35;;;;;;;26.40;9.35;;;;;;;0.58;87.94;101504.06;5057091;28;20559;-74
2022/04/04 03:04:02;;;;;;;18.05;9.93;;;;;;;0.66;88.18;101493.47;5036968;28;20082;-73
2022/04/04 03:06:28;;;;;;;17.65;9.40;;;;;;;0.70;87.23;101486.50;5060850;28;20037;-73
2022/04/04 03:08:54;;;;;;;21.38;10.20;;;;;;;0.79;87.08;101488.56;5037711;28;20041;-74
2022/04/04 03:11:20;;;;;;;23.33;9.63;;;;;;;0.83;86.89;101477.31;5040171;28;20028;-74
2022/04/04 03:13:46;;;;;;;17.17;9.80;;;;;;;0.79;87.46;101470.69;5055267;28;22042;-73
2022/04/04 03:16:12;;;;;;;20.30;10.48;;;;;;;0.81;86.89;101480.84;5038664;28;20025;-73
2022/04/04 03:18:38;;;;;;;20.33;10.27;;;;;;;0.73;87.01;101471.00;5035263;28;20021;-73
2022/04/04 03:21:05;;;;;;;20.15;9.82;;;;;;;0.74;87.16;101470.94;5036271;28;20043;-73
2022/04/04 03:23:32;;;;;;;18.42;9.25;;;;;;;0.87;86.55;101476.25;5037067;28;20040;-73
2022/04/04 03:25:57;;;;;;;21.35;9.90;;;;;;;0.85;86.15;101469.56;5039131;28;20052;-73
2022/04/04 03:28:23;;;;;;;20.95;9.82;;;;;;;0.86;86.32;101468.66;5040856;28;20062;-73
2022/04/04 03:30:48;;;;;;;18.10;9.93;;;;;;;0.76;86.43;101460.66;5034143;28;20036;-73
2022/04/04 03:33:15;;;;;;;19.38;10.00;;;;;;;0.82;86.08;101462.88;5057809;28;20507;-73
2022/04/04 03:35:41;;;;;;;20.42;10.18;;;;;;;0.95;85.88;101453.72;5052633;28;20064;-73
2022/04/04 03:38:10;;;;;;;18.33;10.52;;;;;;;0.89;85.52;101448.09;5034072;28;20412;-73
2022/04/04 03:40:37;;;;;;;23.45;10.90;;;;;;;0.83;85.75;101446.69;5040383;28;20044;-73
2022/04/04 03:43:03;;;;;;;22.75;10.90;;;;;;;0.80;86.23;101440.91;5061246;28;20486;-73
2022/04/04 03:45:28;;;;;;;24.73;11.23;;;;;;;0.90;85.95;101432.69;5041757;28;20044;-74
2022/04/04 03:47:55;;;;;;;21.98;10.48;;;;;;;0.93;85.84;101426.59;5042310;28;20439;-73
2022/04/04 03:50:21;;;;;;;21.73;11.55;;;;;;;0.94;85.21;101418.03;5057980;28;20094;-73
2022/04/04 03:52:48;;;;;;;19.13;11.43;;;;;;;0.93;85.35;101412.09;5063179;28;20036;-73
2022/04/04 03:55:14;;;;;;;26.58;12.65;;;;;;;0.99;84.72;101402.47;5042430;28;20021;-73
2022/04/04 03:57:40;;;;;;;21.90;10.65;;;;;;;1.01;85.13;101393.00;5058849;28;20028;-73
2022/04/04 04:00:07;;;;;;;23.75;12.80;;;;;;;0.93;85.54;101393.41;5041235;28;20378;-73
2022/04/04 04:02:34;;;;;;;20.80;10.95;;;;;;;1.03;84.74;101386.91;5042555;28;20086;-73
2022/04/04 04:05:00;;;;;;;24.63;11.77;;;;;;;1.08;84.30;101384.94;5028591;28;20523;-73
2022/04/04 04:07:26;;;;;;;21.35;11.43;;;;;;;1.12;84.16;101376.22;5062386;28;20036;-73
2022/04/04 04:09:54;;;;;;;25.83;10.82;;;;;;;1.03;84.47;101375.88;5044617;28;20020;-74
2022/04/04 04:12:20;;;;;;;23.98;12.25;;;;;;;1.06;83.57;101380.84;5059419;28;20036;-74
2022/04/04 04:14:47;;;;;;;22.92;12.20;;;;;;;1.03;83.97;101374.13;5055745;28;20064;-73
2022/04/04 04:17:15;;;;;;;19.05;11.40;;;;;;;0.96;84.27;101367.69;5057211;28;20028;-73
2022/04/04 04:22:25;;;;;;;20.75;11.02;;;;;;;0.95;84.24;101366.88;5040824;28;20136;-73
2022/04/04 04:24:50;;;;;;;23.52;11.80;;;;;;;1.01;83.73;101362.34;5056469;28;20692;-74
2022/04/04 04:27:16;;;;;;;20.08;11.15;;;;;;;1.07;83.62;101359.47;5024040;28;20741;-73
2022/04/04 04:29:42;;;;;;;20.77;11.20;;;;;;;0.92;83.76;101356.84;5056930;28;20029;-74
2022/04/04 04:32:10;;;;;;;23.10;11.65;;;;;;;0.85;84.33;101350.41;5042334;28;20029;-73
2022/04/04 04:34:35;;;;;;;23.65;11.75;;;;;;;0.95;83.57;101343.06;5025230;28;20544;-73
2022/04/04 04:37:01;;;;;;;25.92;11.80;;;;;;;0.91;83.54;101339.84;5041313;28;20037;-73
2022/04/04 04:39:27;;;;;;;26.73;12.10;;;;;;;0.90;84.10;101340.75;5041539;28;20033;-73
2022/04/04 04:41:53;;;;;;;26.08;11.52;;;;;;;1.00;83.68;101335.16;5029986;28;20033;-73
2022/04/04 04:44:18;;;;;;;28.33;11.60;;;;;;;1.09;82.56;101335.50;5039126;28;20037;-73
2022/04/04 04:46:44;;;;;;;25.40;11.23;;;;;;;1.02;83.00;101329.06;5060106;28;20070;-73
2022/04/04 04:49:10;;;;;;;31.58;12.05;;;;;;;1.03;83.01;101329.91;5059607;28;20040;-73
2022/04/04 04:51:36;;;;;;;27.85;11.45;;;;;;;1.03;82.43;101319.69;5040177;28;20372;-73
2022/04/04 04:54:03;;;;;;;26.80;11.55;;;;;;;1.14;82.70;101317.38;5058718;28;20025;-73
2022/04/04 04:56:29;;;;;;;27.30;11.40;;;;;;;1.10;82.31;101316.72;5038028;28;20036;-74
2022/04/04 04:58:55;;;;;;;30.88;11.35;;;;;;;0.98;83.10;101319.94;5038633;28;20103;-74
2022/04/04 05:01:21;;;;;;;31.40;11.73;;;;;;;1.08;82.69;101317.72;5041038;28;20489;-73
2022/04/04 05:03:46;;;;;;;24.10;10.40;;;;;;;1.06;82.99;101309.31;5040286;28;20044;-73
2022/04/04 05:06:12;;;;;;;22.92;9.93;;;;;;;1.14;82.27;101305.41;5058088;28;20121;-73
2022/04/04 05:08:37;;;;;;;23.25;10.25;;;;;;;1.30;81.41;101302.03;5041550;28;20528;-73
2022/04/04 05:11:03;;;;;;;21.30;10.43;;;;;;;1.24;81.95;101298.06;5041227;28;20341;-73
2022/04/04 05:13:28;;;;;;;22.88;9.73;;;;;;;1.19;81.75;101294.97;5042578;28;20036;-73
2022/04/04 05:15:57;;;;;;;21.58;9.45;;;;;;;1.15;82.59;101290.94;5042680;28;20567;-73
2022/04/04 05:18:22;;;;;;;23.10;10.18;;;;;;;1.30;82.05;101281.59;5058595;28;20059;-73
2022/04/04 05:20:48;;;;;;;25.02;10.18;;;;;;;1.33;81.78;101289.91;5039085;28;20256;-73
2022/04/04 05:23:13;;;;;;;23.73;8.77;;;;;;;1.37;82.16;101290.56;5058790;28;20413;-73
2022/04/04 05:25:40;;;;;;;21.52;9.63;;;;;;;1.29;82.42;101282.50;5043085;28;20504;-73
2022/04/04 05:28:07;;;;;;;21.20;8.82;;;;;;;1.41;81.45;101281.00;5055004;28;20076;-73
2022/04/04 05:30:33;;;;;;;20.63;9.40;;;;;;;1.43;81.34;101280.03;5057627;28;20032;-73
2022/04/04 05:32:59;;;;;;;18.15;9.23;;;;;;;1.41;82.10;101275.88;5058021;28;20036;-73
2022/04/04 05:35:25;;;;;;;18.23;8.60;;;;;;;1.45;81.78;101270.53;5040454;28;20055;-73
2022/04/04 05:37:54;;;;;;;20.02;9.32;;;;;;;1.53;81.61;101272.66;5041816;28;20028;-73
2022/04/04 05:40:23;;;;;;;18.60;8.73;;;;;;;1.57;81.21;101271.56;5041012;28;20119;-73
2022/04/04 05:42:49;;;;;;;17.23;7.88;;;;;;;1.53;81.58;101268.38;5057825;28;20033;-73
2022/04/04 05:45:15;;;;;;;17.98;9.07;;;;;;;1.50;81.75;101260.84;5057660;28;20044;-73
2022/04/04 05:47:41;;;;;;;22.48;8.88;;;;;;;1.57;81.55;101256.25;5057630;28;20035;-74
2022/04/04 05:50:07;;;;;;;19.20;9.40;;;;;;;1.57;81.80;101252.88;5041901;28;20131;-73
2022/04/04 05:52:37;;;;;;;16.35;8.10;;;;;;;1.69;81.90;101244.47;5058504;28;20286;-73
2022/04/04 05:55:06;;;;;;;21.35;8.10;;;;;;;1.66;81.35;101242.13;5055236;28;20040;-73
2022/04/04 05:57:35;;;;;;;18.58;8.57;;;;;;;1.79;81.27;101239.66;5056314;28;20036;-73
2022/04/04 06:00:02;;;;;;;16.73;9.50;;;;;;;1.81;80.81;101232.72;5043976;28;20473;-72
2022/04/04 06:02:36;;;;;;;21.98;9.93;;;;;;;1.73;80.72;101234.00;5052554;28;20036;-73
2022/04/04 06:05:02;;;;;;;19.48;8.90;;;;;;;1.73;80.69;101230.59;5058418;28;20032;-73
2022/04/04 06:07:28;;;;;;;17.40;8.57;;;;;;;1.80;80.96;101220.88;5038893;28;20032;-73
2022/04/04 06:09:53;;;;;;;25.15;9.15;;;;;;;1.93;80.04;101224.34;5026093;28;20039;-74
2022/04/04 06:12:19;;;;;;;18.85;9.20;;;;;;;1.88;80.36;101226.34;5028588;28;20402;-74
2022/04/04 06:14:44;;;;;;;20.17;8.75;;;;;;;2.01;80.00;101206.81;5056020;28;20040;-73
2022/04/04 06:17:10;;;;;;;16.75;8.65;;;;;;;2.03;80.17;101212.66;5019201;28;20090;-74
2022/04/04 06:19:36;;;;;;;19.17;9.88;;;;;;;2.10;80.23;101208.00;5038892;28;20048;-74
2022/04/04 06:22:03;;;;;;;20.30;9.07;;;;;;;2.24;80.18;101209.75;5038586;28;20113;-74
2022/04/04 06:24:31;;;;;;;21.27;9.40;;;;;;;2.21;79.62;101208.19;5059405;28;20032;-74
2022/04/04 06:26:57;;;;;;;19.75;9.60;;;;;;;2.36;79.73;101188.53;5057536;28;20481;-74
2022/04/04 06:29:22;;;;;;;23.17;9.57;;;;;;;2.32;79.86;101187.91;5039292;28;20096;-74
2022/04/04 06:31:48;;;;;;;20.88;9.43;;;;;;;2.45;79.45;101177.75;5042009;28;20033;-74
2022/04/04 06:34:14;;;;;;;17.42;8.23;;;;;;;2.70;79.33;101176.22;5027950;28;20049;-74
2022/04/04 06:36:40;;;;;;;18.45;8.70;;;;;;;2.70;78.84;101177.03;5057853;28;20036;-76
2022/04/04 06:39:06;;;;;;;20.15;8.82;;;;;;;2.94;78.31;101176.44;5057292;28;20142;-76
2022/04/04 06:41:32;;;;;;;18.10;8.73;;;;;;;3.07;77.85;101156.78;5039895;28;20024;-75
2022/04/04 06:43:58;;;;;;;18.10;8.50;;;;;;;3.22;77.33;101156.69;5061054;28;20036;-77
2022/04/04 06:46:26;;;;;;;23.90;9.55;;;;;;;3.36;77.24;101146.38;5038792;28;20024;-76
2022/04/04 06:48:51;;;;;;;16.85;8.52;;;;;;;3.36;76.41;101132.75;5038266;28;20128;-77
2022/04/04 06:51:18;;;;;;;15.52;8.38;;;;;;;3.23;76.39;101136.09;5053247;28;20483;-74
2022/04/04 06:53:45;;;;;;;18.15;9.07;;;;;;;3.22;76.71;101131.06;5021601;28;21297;-76
2022/04/04 06:56:11;;;;;;;16.10;8.30;;;;;;;3.26;77.15;101129.97;5055347;28;20586;-76
2022/04/04 06:58:36;;;;;;;20.58;9.02;;;;;;;3.33;76.80;101113.25;5056936;28;20036;-76
2022/04/04 07:01:02;;;;;;;15.95;7.70;;;;;;;3.37;76.33;101113.88;5036695;28;20398;-76
2022/04/04 07:03:27;;;;;;;17.02;8.60;;;;;;;3.45;76.21;101109.06;5039035;28;20044;-77
2022/04/04 07:05:53;;;;;;;23.08;8.70;;;;;;;3.53;76.53;101109.38;5043300;28;20054;-76
2022/04/04 07:08:19;;;;;;;16.25;8.20;;;;;;;3.66;76.01;101107.63;5038483;28;20117;-74
2022/04/04 07:10:45;;;;;;;13.63;7.32;;;;;;;3.84;75.31;101091.88;5054338;28;20791;-76
2022/04/04 07:13:10;;;;;;;15.48;8.18;;;;;;;3.88;74.50;101101.00;5043104;28;20059;-76
2022/04/04 07:15:36;;;;;;;14.77;8.73;;;;;;;4.01;75.05;101089.00;5040274;28;20764;-76
2022/04/04 07:18:03;;;;;;;15.25;8.18;;;;;;;4.07;74.13;101088.56;5059037;28;20111;-75
2022/04/04 07:20:28;;;;;;;16.60;8.23;;;;;;;4.22;74.05;101085.84;5040173;28;20044;-75
2022/04/04 07:22:54;;;;;;;19.50;8.73;;;;;;;3.99;74.44;101095.16;5043077;28;20029;-76
2022/04/04 07:25:21;;;;;;;15.30;8.18;;;;;;;3.87;74.91;101078.88;5032494;28;20628;-76
2022/04/04 07:27:48;;;;;;;18.15;8.95;;;;;;;3.82;75.24;101083.47;5061395;28;20801;-75
2022/04/04 07:30:18;;;;;;;18.10;9.02;;;;;;;3.96;75.71;101080.00;5063423;28;20036;-75
2022/04/04 07:32:45;;;;;;;13.88;8.57;;;;;;;4.04;74.68;101082.81;5044244;28;20043;-75
2022/04/04 07:35:12;;;;;;;13.15;8.02;;;;;;;4.17;74.96;101068.22;5050491;28;20574;-75
2022/04/04 07:37:41;;;;;;;18.38;8.50;;;;;;;4.22;74.00;101062.75;5060051;28;20064;-75
2022/04/04 07:40:10;;;;;;;15.43;9.10;;;;;;;4.32;74.60;101055.22;5044484;28;20104;-76
2022/04/04 07:42:37;;;;;;;14.68;8.38;;;;;;;4.35;73.46;101053.28;5037900;28;20029;-75
2022/04/04 07:45:03;;;;;;;18.17;7.43;;;;;;;4.41;72.66;101042.56;5060128;28;20845;-75
2022/04/04 07:47:29;;;;;;;14.40;7.25;;;;;;;4.39;72.92;101038.44;5043398;28;23018;-75
2022/04/04 07:49:55;;;;;;;13.93;7.38;;;;;;;4.45;72.81;101040.59;5044304;28;20040;-75
2022/04/04 07:52:20;;;;;;;15.88;8.15;;;;;;;4.54;72.05;101029.66;5043443;28;20028;-75
2022/04/04 07:54:46;;;;;;;14.88;7.32;;;;;;;4.54;72.26;101023.69;5041971;28;20051;-75
2022/04/04 07:57:11;;;;;;;18.92;7.70;;;;;;;4.76;72.33;101028.06;5041598;28;20033;-74
2022/04/04 07:59:37;;;;;;;17.88;7.80;;;;;;;4.94;70.37;101018.19;5059670;28;20037;-75
2022/04/04 08:02:03;;;;;;;15.52;7.18;;;;;;;5.10;70.06;101013.53;5044615;28;20268;-75
2022/04/04 08:04:28;;;;;;;14.80;8.05;;;;;;;5.28;68.76;101021.63;5046521;28;20037;-76
2022/04/04 08:06:54;;;;;;;12.57;7.13;;;;;;;5.36;68.66;101018.47;5062976;28;20032;-75
2022/04/04 08:09:19;;;;;;;15.52;7.00;;;;;;;5.42;68.58;101007.72;5061170;28;20036;-75
2022/04/04 08:11:45;;;;;;;12.80;7.05;;;;;;;5.54;68.46;101008.53;5062607;28;20045;-74
2022/04/04 08:14:11;;;;;;;16.80;7.43;;;;;;;5.57;67.56;101009.09;5030459;28;20040;-74
2022/04/04 08:16:37;;;;;;;15.95;7.43;;;;;;;5.45;68.45;101000.59;5062270;28;20385;-76
2022/04/04 08:19:03;;;;;;;12.48;6.43;;;;;;;5.46;68.45;100989.38;5059853;28;20028;-76
2022/04/04 08:21:29;;;;;;;12.40;6.72;;;;;;;5.39;67.70;100998.50;5041809;28;20125;-76
2022/04/04 08:23:57;;;;;;;12.98;7.10;;;;;;;5.49;68.05;100993.44;5056006;28;20032;-75
2022/04/04 08:26:23;;;;;;;14.95;6.93;;;;;;;5.61;68.21;100987.38;5058735;28;20605;-75
2022/04/04 08:28:48;;;;;;;10.00;6.03;;;;;;;5.61;67.08;100977.09;5046471;28;20020;-76
2022/04/04 08:31:14;;;;;;;12.20;7.05;;;;;;;5.87;67.04;100973.41;5039984;28;20024;-76
2022/04/04 08:33:39;;;;;;;13.38;7.38;;;;;;;6.01;65.95;100980.88;5061466;28;20564;-75
2022/04/04 08:36:05;;;;;;;12.13;6.85;;;;;;;6.19;65.48;100979.41;5044163;28;20032;-76
2022/04/04 08:38:31;;;;;;;17.13;7.85;;;;;;;6.32;64.21;100973.28;5042076;28;20503;-76
2022/04/04 08:41:03;;;;;;;14.48;7.22;;;;;;;6.34;63.78;100956.75;5042579;28;20036;-74
2022/04/04 08:43:35;;;;;;;16.88;6.47;;;;;;;6.40;63.78;100958.00;5045930;28;20120;-74
2022/04/04 08:46:02;;;;;;;13.68;6.78;;;;;;;6.42;63.15;100950.97;5058296;28;20033;-74
2022/04/04 08:48:30;;;;;;;14.73;6.60;;;;;;;6.30;62.40;100952.78;5043067;28;20064;-75
2022/04/04 08:50:55;;;;;;;15.18;6.88;;;;;;;6.29;63.34;100952.91;5026264;28;20483;-75
2022/04/04 08:53:21;;;;;;;19.48;7.68;;;;;;;6.43;62.71;100942.31;5061354;28;20028;-75
2022/04/04 08:55:47;;;;;;;18.95;6.72;;;;;;;6.46;63.19;100936.91;5060829;28;20033;-75
2022/04/04 08:58:13;;;;;;;10.18;6.95;;;;;;;6.48;62.87;100929.03;5046673;28;20033;-77
2022/04/04 09:00:38;;;;;;;15.55;6.20;;;;;;;6.56;63.14;100927.47;5038464;28;20464;-76
2022/04/04 09:03:05;;;;;;;11.98;6.40;;;;;;;6.64;62.11;100911.38;5061272;28;20082;-76
2022/04/04 09:05:35;;;;;;;13.80;6.60;;;;;;;6.56;61.81;100913.78;5043971;28;20309;-75
2022/04/04 09:08:06;;;;;;;13.18;6.82;;;;;;;6.57;62.42;100918.81;5043329;28;20454;-75
2022/04/04 09:10:37;;;;;;;17.02;7.20;;;;;;;6.65;62.58;100910.44;5059664;28;20074;-76
2022/04/04 09:13:06;;;;;;;16.80;9.80;;;;;;;6.48;62.43;100913.59;5025462;28;20480;-76
2022/04/04 09:15:52;;;;;;;20.17;9.75;;;;;;;6.57;62.42;100902.53;5038600;28;20032;-75
2022/04/04 09:18:19;;;;;;;21.15;8.30;;;;;;;6.67;63.04;100897.41;5044001;28;20464;-76
2022/04/04 09:20:51;;;;;;;22.13;7.72;;;;;;;6.49;62.46;100900.59;5056441;28;20036;-75
2022/04/04 09:23:17;;;;;;;17.30;7.85;;;;;;;6.58;63.95;100883.56;5061118;28;20043;-75
2022/04/04 09:25:43;;;;;;;12.57;6.78;;;;;;;6.62;63.95;100887.50;5057816;28;20041;-75
2022/04/04 09:28:17;;;;;;;17.20;7.20;;;;;;;6.47;64.96;100875.91;5038972;28;20211;-75
2022/04/04 09:30:44;;;;;;;16.73;7.63;;;;;;;6.37;66.41;100868.94;5038751;28;20400;-76
2022/04/04 09:33:13;;;;;;;18.25;8.65;;;;;;;6.19;67.11;100863.53;5059689;28;20105;-76
2022/04/04 09:35:46;;;;;;;18.88;9.93;;;;;;;6.14;67.95;100864.84;5058037;28;20039;-75
2022/04/04 09:38:14;;;;;;;18.40;9.85;;;;;;;6.09;69.30;100862.66;5054095;28;20230;-75
2022/04/04 09:40:40;;;;;;;29.45;14.23;;;;;;;6.07;70.76;100861.16;5042035;28;20028;-76
2022/04/04 09:43:06;;;;;;;26.83;11.45;;;;;;;5.94;70.83;100864.69;5045035;28;20547;-76
2022/04/04 09:45:31;;;;;;;19.90;9.98;;;;;;;5.82;72.15;100855.38;5060072;28;20116;-76
2022/04/04 09:48:08;;;;;;;36.45;13.20;;;;;;;5.68;73.68;100858.25;5040561;28;20492;-75
2022/04/04 09:50:50;;;;;;;30.58;14.93;;;;;;;5.66;73.69;100861.75;5037562;28;20100;-76
2022/04/04 09:53:29;;;;;;;20.58;11.00;;;;;;;5.49;75.09;100851.19;5057844;28;20083;-75
2022/04/04 09:55:57;;;;;;;46.45;21.92;;;;;;;5.51;76.86;100860.41;5042893;28;20037;-76
2022/04/04 09:58:25;;;;;;;30.42;15.52;;;;;;;5.36;78.03;100846.97;5042676;28;20035;-76
2022/04/04 10:00:50;;;;;;;28.55;12.90;;;;;;;5.35;79.17;100847.09;5040065;28;20033;-76
2022/04/04 10:03:20;;;;;;;22.42;10.45;;;;;;;5.25;79.97;100827.28;5057774;28;20029;-76
2022/04/04 10:06:00;;;;;;;22.55;10.77;;;;;;;5.22;80.53;100829.28;5044322;28;20036;-77
2022/04/04 10:08:27;;;;;;;16.92;10.80;;;;;;;5.18;80.81;100828.69;5044437;28;20048;-77
2022/04/04 10:10:56;;;;;;;18.08;10.10;;;;;;;5.16;81.34;100815.16;5059051;28;20701;-77
2022/04/04 10:13:23;;;;;;;18.38;10.82;;;;;;;5.23;79.49;100811.13;5062974;28;20036;-76
2022/04/04 10:15:50;;;;;;;19.08;10.57;;;;;;;5.30;79.50;100814.03;5044162;28;20397;-77
2022/04/04 10:18:16;;;;;;;23.13;14.20;;;;;;;5.33;80.38;100813.81;5027370;28;20054;-77
2022/04/04 10:20:41;;;;;;;17.75;10.95;;;;;;;5.26;80.60;100805.75;5047605;28;20032;-78
2022/04/04 10:23:12;;;;;;;20.02;11.07;;;;;;;5.40;79.54;100801.28;5065278;28;20089;-77
2022/04/04 10:25:39;;;;;;;18.95;11.05;;;;;;;5.57;80.12;100817.94;5035757;28;20501;-77
2022/04/04 10:28:05;;;;;;;17.90;9.38;;;;;;;5.57;80.65;100811.03;5034287;28;20252;-75
2022/04/04 10:30:42;;;;;;;16.52;10.15;;;;;;;5.70;80.89;100792.03;5038478;28;20124;-76
2022/04/04 10:33:24;;;;;;;16.83;10.55;;;;;;;5.66;81.76;100800.00;5036090;28;20040;-76
2022/04/04 10:36:04;;;;;;;23.85;10.60;;;;;;;5.63;80.51;100792.53;5035363;28;20415;-75
2022/04/04 10:38:32;;;;;;;22.67;12.05;;;;;;;5.61;82.84;100807.28;5047766;28;20028;-76
2022/04/04 10:40:58;;;;;;;22.40;11.15;;;;;;;5.58;82.70;100784.38;5043504;28;20040;-79
2022/04/04 10:43:24;;;;;;;17.77;10.77;;;;;;;5.50;82.32;100799.63;5044379;28;20048;-78
2022/04/04 10:45:52;;;;;;;14.95;10.35;;;;;;;5.45;82.89;100794.00;5055815;28;20024;-78
2022/04/04 10:48:19;;;;;;;21.38;10.38;;;;;;;5.41;83.85;100782.34;5026845;28;20094;-75
2022/04/04 10:50:45;;;;;;;24.63;11.68;;;;;;;5.26;84.97;100781.81;5044931;28;20034;-79
2022/04/04 10:53:11;;;;;;;18.38;10.93;;;;;;;5.24;86.33;100786.25;5024817;28;20040;-79
2022/04/04 10:55:36;;;;;;;21.08;12.05;;;;;;;5.20;86.63;100775.41;5039320;28;20040;-77
2022/04/04 10:58:13;;;;;;;24.23;12.80;;;;;;;5.10;87.21;100779.63;5028109;28;20027;-79
2022/04/04 11:00:54;;;;;;;20.98;12.90;;;;;;;4.96;87.37;100773.00;5025851;28;20051;-79
2022/04/04 11:03:35;;;;;;;23.42;12.63;;;;;;;4.78;87.99;100770.09;5054116;28;20060;-80
2022/04/04 11:09:18;;;;;;;26.45;14.45;;;;;;;4.64;88.79;100752.38;5058799;28;20032;-80
2022/04/04 11:12:14;;;;;;;24.77;13.50;;;;;;;4.64;89.27;100778.88;5043641;28;20431;-79
2022/04/04 11:14:42;;;;;;;20.77;13.30;;;;;;;4.67;90.23;100777.81;5041808;28;20037;-80
2022/04/04 11:17:11;;;;;;;31.88;13.75;;;;;;;4.64;90.96;100768.59;5059468;28;20029;-80
2022/04/04 11:19:42;;;;;;;24.73;14.65;;;;;;;4.65;90.96;100765.13;5063143;28;20056;-81
2022/04/04 11:22:08;;;;;;;23.55;13.32;;;;;;;4.65;91.53;100757.41;5035460;28;20025;-81
2022/04/04 11:24:34;;;;;;;25.65;13.25;;;;;;;4.65;91.88;100754.00;5038582;28;20047;-79
2022/04/04 11:27:03;;;;;;;23.70;13.15;;;;;;;4.59;92.71;100757.84;5029600;28;20025;-80
2022/04/04 11:29:29;;;;;;;22.98;13.52;;;;;;;4.63;93.44;100751.56;5045905;28;20040;-81
2022/04/04 11:31:55;;;;;;;24.08;14.32;;;;;;;4.63;93.99;100743.03;5030324;28;20032;-80